createdAt,value
2017-11-08T00:00:59.666Z,22.83
2017-11-08T00:06:01.353Z,21.30
2017-11-08T00:11:03.110Z,23.93
2017-11-08T00:16:07.828Z,21.67
2017-11-08T00:21:10.290Z,22.93
2017-11-08T00:26:12.055Z,22.70
2017-11-08T00:31:14.493Z,24.83
2017-11-08T00:36:16.190Z,24.43
2017-11-08T00:41:17.899Z,23.67
2017-11-08T00:46:19.613Z,23.27
2017-11-08T00:51:22.019Z,21.87
2017-11-08T00:56:23.814Z,26.07
2017-11-08T01:01:25.487Z,24.53
2017-11-08T01:06:27.214Z,24.93
2017-11-08T01:11:28.932Z,24.03
2017-11-08T01:16:30.773Z,25.90
2017-11-08T01:21:33.311Z,28.40
2017-11-08T01:26:35.070Z,26.37
2017-11-08T01:31:37.791Z,26.90
2017-11-08T01:36:39.510Z,27.77
2017-11-08T01:41:42.950Z,26.30
2017-11-08T01:46:45.394Z,26.13
2017-11-08T01:51:48.084Z,26.87
2017-11-08T01:56:50.647Z,27.03
2017-11-08T02:01:52.372Z,27.73
2017-11-08T02:06:58.535Z,27.70
2017-11-08T02:12:04.000Z,29.70
2017-11-08T02:17:09.030Z,26.20
2017-11-08T02:22:10.856Z,26.90
2017-11-08T02:27:12.634Z,27.67
2017-11-08T02:32:14.410Z,27.17
2017-11-08T02:37:16.142Z,28.20
2017-11-08T02:42:17.880Z,27.00
2017-11-08T02:47:20.322Z,29.40
2017-11-08T02:52:22.031Z,27.53
2017-11-08T02:57:23.771Z,27.33
2017-11-08T03:02:29.107Z,27.13
2017-11-08T03:07:30.790Z,27.77
2017-11-08T03:12:32.459Z,27.50
2017-11-08T03:17:34.871Z,27.53
2017-11-08T03:22:36.798Z,26.00
2017-11-08T03:27:38.594Z,26.70
2017-11-08T03:32:40.283Z,28.73
2017-11-08T03:37:42.815Z,27.43
2017-11-08T03:42:44.523Z,27.50
2017-11-08T03:47:46.224Z,26.27
2017-11-08T03:52:47.967Z,27.57
2017-11-08T03:57:52.020Z,27.13
2017-11-08T04:02:53.810Z,28.70
2017-11-08T04:07:55.836Z,28.53
2017-11-08T04:12:59.343Z,28.43
2017-11-08T04:18:02.737Z,29.60
2017-11-08T04:23:07.402Z,26.30
2017-11-08T04:28:09.722Z,26.53
2017-11-08T04:33:11.786Z,27.60
2017-11-08T04:38:13.517Z,25.40
2017-11-08T04:43:16.594Z,25.87
2017-11-08T04:48:18.290Z,26.80
2017-11-08T04:53:19.972Z,24.80
2017-11-08T04:58:22.823Z,26.03
2017-11-08T05:03:24.633Z,24.80
2017-11-08T05:08:26.337Z,25.43
2017-11-08T05:13:28.160Z,28.10
2017-11-08T05:18:30.595Z,28.57
2017-11-08T05:23:32.297Z,26.60
2017-11-08T05:28:34.017Z,27.27
2017-11-08T05:33:35.728Z,27.80
2017-11-08T05:38:37.410Z,29.13
2017-11-08T05:43:39.186Z,30.53
2017-11-08T05:48:40.886Z,28.30
2017-11-08T05:53:42.653Z,28.77
2017-11-08T05:58:44.370Z,28.70
2017-11-08T06:03:46.788Z,29.77
2017-11-08T06:08:48.503Z,30.93
2017-11-08T06:13:50.183Z,29.83
2017-11-08T06:18:51.934Z,30.70
2017-11-08T06:23:53.652Z,31.07
2017-11-08T06:28:55.430Z,30.00
2017-11-08T06:33:57.114Z,32.77
2017-11-08T06:38:58.787Z,29.60
2017-11-08T06:44:00.475Z,30.20
2017-11-08T06:49:02.936Z,31.13
2017-11-08T06:54:07.475Z,30.60
2017-11-08T06:59:09.171Z,30.53
2017-11-08T07:04:10.950Z,30.93
2017-11-08T07:09:13.408Z,29.20
2017-11-08T07:14:15.165Z,30.47
2017-11-08T07:19:17.187Z,30.80
2017-11-08T07:24:18.882Z,30.13
2017-11-08T07:29:20.552Z,29.37
2017-11-08T07:34:23.028Z,35.57
2017-11-08T07:39:24.845Z,31.27
2017-11-08T07:44:26.704Z,31.53
2017-11-08T07:49:28.393Z,32.80
2017-11-08T07:54:36.166Z,32.07
2017-11-08T07:59:40.732Z,32.37
2017-11-08T08:04:43.912Z,32.73
2017-11-08T08:09:52.547Z,34.30
2017-11-08T08:15:03.276Z,33.30
2017-11-08T08:20:10.590Z,33.63
2017-11-08T08:25:22.620Z,34.57
2017-11-08T08:30:40.285Z,34.47
2017-11-08T08:35:47.865Z,36.37
2017-11-08T08:40:57.287Z,37.70
2017-11-08T08:46:11.425Z,36.77
2017-11-08T08:51:21.326Z,37.27
2017-11-08T08:56:32.977Z,38.57
2017-11-08T09:01:42.496Z,37.80
2017-11-08T09:06:55.339Z,37.07
2017-11-08T09:12:04.452Z,35.47
2017-11-08T09:17:13.515Z,36.83
2017-11-08T09:22:23.582Z,39.83
2017-11-08T09:27:33.392Z,36.80
2017-11-08T09:32:41.134Z,37.93
2017-11-08T09:37:54.412Z,39.80
2017-11-08T09:43:07.991Z,46.23
2017-11-08T09:48:20.312Z,46.57
2017-11-08T09:53:29.589Z,53.37
2017-11-08T09:58:38.967Z,48.30
2017-11-08T10:03:47.317Z,47.93
2017-11-08T10:08:57.050Z,41.23
2017-11-08T10:14:08.048Z,40.87
2017-11-08T10:19:20.590Z,40.67
2017-11-08T10:24:31.662Z,38.50
2017-11-08T10:29:42.904Z,39.13
2017-11-08T10:34:52.477Z,38.97
2017-11-08T10:40:02.843Z,33.70
2017-11-08T10:45:11.285Z,34.90
2017-11-08T10:50:18.740Z,35.27
2017-11-08T10:55:27.862Z,35.40
2017-11-08T11:00:48.311Z,37.10
2017-11-08T11:05:57.432Z,32.70
2017-11-08T11:11:05.904Z,34.63
2017-11-08T11:16:16.312Z,35.87
2017-11-08T11:21:24.160Z,34.27
2017-11-08T11:26:33.073Z,33.27
2017-11-08T11:31:34.824Z,34.53
2017-11-08T11:36:37.207Z,32.83
2017-11-08T11:41:40.016Z,39.47
2017-11-08T11:46:41.804Z,34.63
2017-11-08T11:51:43.518Z,34.60
2017-11-08T11:56:45.374Z,36.07
2017-11-08T12:01:47.225Z,31.50
2017-11-08T12:06:48.991Z,36.33
2017-11-08T12:11:50.931Z,35.33
2017-11-08T12:16:57.297Z,36.17
2017-11-08T12:21:59.232Z,38.57
2017-11-08T12:27:04.966Z,37.67
2017-11-08T12:32:08.018Z,35.90
2017-11-08T12:37:09.928Z,35.07
2017-11-08T12:42:13.616Z,38.57
2017-11-08T12:47:21.124Z,39.67
2017-11-08T12:52:23.130Z,37.30
2017-11-08T12:57:29.364Z,38.70
2017-11-08T13:02:32.866Z,36.40
2017-11-08T13:07:35.838Z,51.10
2017-11-08T13:12:37.731Z,37.80
2017-11-08T13:17:39.543Z,38.97
2017-11-08T13:22:41.389Z,39.90
2017-11-08T13:27:47.605Z,40.57
2017-11-08T13:32:55.161Z,40.00
2017-11-08T13:38:01.093Z,42.13
2017-11-08T13:43:03.031Z,41.93
2017-11-08T13:48:04.847Z,41.40
2017-11-08T13:53:06.613Z,39.73
2017-11-08T13:58:08.409Z,39.37
2017-11-08T14:03:10.983Z,40.70
2017-11-08T14:08:12.749Z,40.93
2017-11-08T14:13:14.466Z,40.43
2017-11-08T14:18:16.165Z,42.87
2017-11-08T14:23:17.893Z,39.87
2017-11-08T14:28:19.612Z,41.07
2017-11-08T14:33:22.084Z,43.10
2017-11-08T14:38:23.788Z,39.30
2017-11-08T14:43:25.515Z,40.30
2017-11-08T14:48:27.240Z,38.93
2017-11-08T14:53:29.728Z,41.07
2017-11-08T14:58:31.408Z,41.37
2017-11-08T15:03:33.118Z,39.67
2017-11-08T15:08:34.907Z,40.27
2017-11-08T15:13:36.711Z,43.30
2017-11-08T15:18:38.491Z,47.07
2017-11-08T15:23:40.172Z,58.80
2017-11-08T15:28:41.873Z,44.10
2017-11-08T15:33:45.545Z,44.13
2017-11-08T15:38:47.233Z,41.60
2017-11-08T15:43:48.941Z,43.67
2017-11-08T15:48:50.708Z,40.40
2017-11-08T15:53:52.395Z,43.97
2017-11-08T15:58:54.411Z,47.47
2017-11-08T16:03:56.872Z,48.10
2017-11-08T16:09:00.951Z,45.30
2017-11-08T16:14:04.323Z,61.03
2017-11-08T16:19:06.119Z,43.50
2017-11-08T16:24:07.790Z,44.50
2017-11-08T16:29:10.224Z,44.57
2017-11-08T16:34:11.970Z,43.23
2017-11-08T16:39:13.642Z,41.10
2017-11-08T16:44:15.329Z,43.43
2017-11-08T16:49:17.004Z,43.67
2017-11-08T16:54:19.412Z,45.73
2017-11-08T16:59:36.750Z,42.80
2017-11-08T17:04:38.453Z,42.33
2017-11-08T17:09:40.127Z,44.67
2017-11-08T17:14:41.868Z,44.17
2017-11-08T17:19:44.287Z,42.77
2017-11-08T17:24:46.960Z,42.23
2017-11-08T17:29:48.659Z,43.07
2017-11-08T17:34:50.330Z,42.60
2017-11-08T17:39:51.998Z,42.53
2017-11-08T17:44:54.505Z,41.90
2017-11-08T17:49:56.207Z,43.00
2017-11-08T17:54:58.651Z,44.20
2017-11-08T18:00:00.356Z,48.87
2017-11-08T18:05:02.055Z,51.47
2017-11-08T18:10:03.883Z,48.27
2017-11-08T18:15:05.561Z,46.13
2017-11-08T18:20:07.280Z,43.80
2017-11-08T18:25:08.996Z,46.00
2017-11-08T18:30:10.959Z,42.60
2017-11-08T18:35:12.678Z,44.70
2017-11-08T18:40:14.381Z,44.60
2017-11-08T18:45:16.349Z,48.30
2017-11-08T18:50:18.071Z,46.30
2017-11-08T18:55:19.913Z,44.87
2017-11-08T19:00:22.414Z,44.07
2017-11-08T19:05:24.127Z,44.97
2017-11-08T19:10:26.652Z,42.37
2017-11-08T19:15:29.105Z,43.17
2017-11-08T19:20:30.784Z,44.43
2017-11-08T19:25:32.491Z,44.80
2017-11-08T19:30:34.214Z,41.90
2017-11-08T19:35:35.947Z,45.77
2017-11-08T19:40:37.785Z,44.13
2017-11-08T19:45:39.559Z,45.60
2017-11-08T19:50:42.134Z,45.27
2017-11-08T19:55:45.691Z,45.83
2017-11-08T20:00:49.031Z,47.47
2017-11-08T20:05:51.195Z,44.50
2017-11-08T20:10:52.964Z,47.00
2017-11-08T20:15:54.643Z,50.87
2017-11-08T20:20:56.435Z,49.13
2017-11-08T20:25:58.142Z,48.40
2017-11-08T20:30:59.820Z,46.50
2017-11-08T20:36:01.496Z,43.90
2017-11-08T20:41:03.292Z,44.07
2017-11-08T20:46:05.449Z,43.60
2017-11-08T20:51:08.501Z,47.07
2017-11-08T20:56:11.462Z,46.27
2017-11-08T21:01:13.818Z,44.47
2017-11-08T21:06:15.955Z,45.60
2017-11-08T21:11:18.389Z,46.30
2017-11-08T21:16:20.074Z,42.27
2017-11-08T21:21:21.761Z,43.43
2017-11-08T21:26:23.438Z,43.10
2017-11-08T21:31:25.118Z,43.50
2017-11-08T21:36:26.845Z,42.53
2017-11-08T21:41:29.355Z,45.77
2017-11-08T21:46:31.046Z,44.13
2017-11-08T21:51:32.796Z,42.27
2017-11-08T21:56:34.939Z,43.30
2017-11-08T22:01:36.744Z,42.35
2017-11-08T22:06:38.433Z,44.20
2017-11-08T22:11:40.205Z,43.07
2017-11-08T22:16:41.905Z,43.43
2017-11-08T22:21:43.603Z,44.73
2017-11-08T22:26:45.324Z,43.70
2017-11-08T22:31:47.028Z,43.00
2017-11-08T22:36:48.734Z,44.20
2017-11-08T22:41:50.432Z,42.50
2017-11-08T22:46:52.969Z,43.40
2017-11-08T22:51:55.392Z,41.27
2017-11-08T22:56:58.207Z,43.53
2017-11-08T23:02:00.338Z,42.10
2017-11-08T23:07:02.029Z,42.03
2017-11-08T23:12:03.751Z,43.83
2017-11-08T23:17:05.438Z,40.97
2017-11-08T23:22:07.178Z,42.17
2017-11-08T23:27:08.923Z,42.37
2017-11-08T23:32:11.438Z,39.97
2017-11-08T23:37:13.149Z,40.87
2017-11-08T23:42:14.863Z,42.23
2017-11-08T23:47:16.653Z,44.13
2017-11-08T23:52:18.361Z,42.73
2017-11-08T23:57:20.152Z,42.93
